»·PEaware :: N55NT KSNA-KIWA

N55NT :: KSNA-KIWA

FLIGHT INFORMATION

Flight Status: Arrived
Operator: Privately registered:
United States
More flights under this callsign
Pilot: Craig H. (6968)
Aircraft: BEECH AIRCRAFT SUPER KING AIR 350
(B350)
More flights by this aircraft type
Origin: KSNA John Wayne-Orange Co
United States
Destination: KIWA Williams Gateway
United States
More flights between these airports :: More routes between these airports
Route: +PIGGN2 CNERY BLH BLH5
File this flight plan on PilotEdge
Remarks:
Altitude:
(Current/Filed)
35,000ft
Speed:
(Current/Filed)
320kts
Departed: 30-Oct-20 11:34 AM
Arrived: 30-Oct-20 12:58 PM
Distance/Time
Traveled:
311nm/1:24
Distance/Time
To Go:
Arrived

Flight Plot

Page will automatically refresh every two minutes.

Flight plan parsing failed; only flown route is shown


Map Options




Map Legend


Flown Route
Filed Route
Departure Airport
Arrival Airport
Navaid (VOR, NDB)
Fix

Horizontal Profiles

Position Reports

Time Latitude Longitude Heading Altitude Ground
Speed
30-Oct-20 11:11 33.666038 -117.873046 41 61ft 0kts
30-Oct-20 11:12 33.666038 -117.873046 41 61ft 0kts
30-Oct-20 11:13 33.666038 -117.873046 41 61ft 0kts
30-Oct-20 11:14 33.666038 -117.873046 41 61ft 0kts
30-Oct-20 11:15 33.666038 -117.873046 41 61ft 0kts
30-Oct-20 11:16 33.666038 -117.873046 41 61ft 0kts
30-Oct-20 11:17 33.666038 -117.873046 41 61ft 0kts
30-Oct-20 11:18 33.666038 -117.873046 41 61ft 0kts
30-Oct-20 11:19 33.666038 -117.873046 41 61ft 0kts
30-Oct-20 11:20 33.666038 -117.873046 41 61ft 0kts
30-Oct-20 11:21 33.666038 -117.873046 41 61ft 0kts
30-Oct-20 11:22 33.666038 -117.873046 41 61ft 0kts
30-Oct-20 11:23 33.666038 -117.873046 40 61ft 0kts
30-Oct-20 11:24 33.666038 -117.873046 40 61ft 0kts
30-Oct-20 11:25 33.666038 -117.873046 40 61ft 0kts
30-Oct-20 11:26 33.666038 -117.873046 40 61ft 0kts
30-Oct-20 11:27 33.666151 -117.873115 308 61ft 4kts
30-Oct-20 11:28 33.666966 -117.873117 36 61ft 13kts
30-Oct-20 11:29 33.670611 -117.869384 39 61ft 18kts
30-Oct-20 11:30 33.674610 -117.866169 27 61ft 19kts
30-Oct-20 11:31 33.679683 -117.862961 27 61ft 18kts
30-Oct-20 11:32 33.681289 -117.864509 298 61ft 14kts
30-Oct-20 11:33 33.669796 -117.872457 208 341ft 127kts
30-Oct-20 11:34 33.629561 -117.888810 187 2055ft 176kts
30-Oct-20 11:35 33.580124 -117.897757 188 3993ft 183kts
30-Oct-20 11:36 33.533227 -117.875275 151 5838ft 188kts
30-Oct-20 11:37 33.497573 -117.833082 113 7591ft 188kts
30-Oct-20 11:38 33.475947 -117.775771 97 9210ft 190kts
30-Oct-20 11:39 33.479861 -117.713102 82 10781ft 190kts
30-Oct-20 11:40 33.501035 -117.656397 58 12224ft 190kts
30-Oct-20 11:41 33.527670 -117.600481 58 13499ft 196kts
30-Oct-20 11:42 33.555048 -117.542920 59 14765ft 201kts
30-Oct-20 11:43 33.580625 -117.482561 90 15987ft 209kts
30-Oct-20 11:44 33.562722 -117.417479 113 17389ft 208kts
30-Oct-20 11:45 33.542316 -117.352416 113 18676ft 210kts
30-Oct-20 11:46 33.521658 -117.286712 115 19946ft 211kts
30-Oct-20 11:47 33.504824 -117.219297 95 21161ft 217kts
30-Oct-20 11:48 33.503178 -117.146709 95 22401ft 219kts
30-Oct-20 11:49 33.501694 -117.073353 95 23670ft 221kts
30-Oct-20 11:50 33.500164 -116.999604 95 24934ft 222kts
30-Oct-20 11:51 33.498592 -116.925508 95 26038ft 223kts
30-Oct-20 11:53 33.497542 -116.851138 95 27045ft 224kts
30-Oct-20 11:54 33.496702 -116.775935 95 27926ft 226kts
30-Oct-20 11:55 33.495816 -116.700616 95 28746ft 226kts
30-Oct-20 11:56 33.494884 -116.625383 95 29482ft 227kts
30-Oct-20 11:57 33.493908 -116.549777 95 30443ft 227kts
30-Oct-20 11:58 33.492878 -116.473778 95 31300ft 227kts
30-Oct-20 11:59 33.491810 -116.398037 95 32057ft 227kts
30-Oct-20 12:00 33.490708 -116.322228 95 32771ft 226kts
30-Oct-20 12:01 33.489551 -116.246444 95 33389ft 229kts
30-Oct-20 12:02 33.488338 -116.169887 95 34002ft 230kts
30-Oct-20 12:03 33.487077 -116.092956 95 34530ft 233kts
30-Oct-20 12:04 33.491778 -116.015722 73 35000ft 239kts
30-Oct-20 12:05 33.514439 -115.937462 72 35102ft 262kts
30-Oct-20 12:06 33.539875 -115.850343 72 35104ft 289kts
30-Oct-20 12:06 33.562527 -115.772609 72 35103ft 303kts
30-Oct-20 12:08 33.595328 -115.659697 72 35112ft 312kts
30-Oct-20 12:08 33.619057 -115.576797 79 35106ft 317kts
30-Oct-20 12:09 33.618209 -115.472350 95 35114ft 317kts
30-Oct-20 12:10 33.615146 -115.365402 95 35117ft 324kts
30-Oct-20 12:11 33.611913 -115.256172 96 35109ft 329kts
30-Oct-20 12:12 33.608549 -115.145804 96 35106ft 334kts
30-Oct-20 12:13 33.605038 -115.033890 96 35098ft 338kts
30-Oct-20 12:14 33.601361 -114.920253 97 35094ft 342kts
30-Oct-20 12:15 33.597565 -114.805983 97 35094ft 345kts
30-Oct-20 12:16 33.589778 -114.690339 100 34582ft 357kts
30-Oct-20 12:17 33.579312 -114.572756 100 33119ft 354kts
30-Oct-20 12:18 33.568834 -114.456311 100 31648ft 348kts
30-Oct-20 12:19 33.558394 -114.341636 101 30196ft 349kts
30-Oct-20 12:20 33.547637 -114.224609 101 28727ft 358kts
30-Oct-20 12:21 33.536570 -114.105563 100 27247ft 360kts
30-Oct-20 12:22 33.525398 -113.986493 100 25753ft 358kts
30-Oct-20 12:23 33.508179 -113.871250 124 24243ft 341kts
30-Oct-20 12:24 33.463009 -113.772298 124 23090ft 334kts
30-Oct-20 12:25 33.418675 -113.675344 124 23091ft 331kts
30-Oct-20 12:34 33.377717 -113.585999 124 23092ft 330kts
30-Oct-20 12:35 33.333522 -113.489841 124 23092ft 330kts
30-Oct-20 12:36 33.289315 -113.393959 124 22723ft 333kts
30-Oct-20 12:37 33.268386 -113.290417 92 20788ft 327kts
30-Oct-20 12:38 33.271223 -113.184640 92 18838ft 314kts
30-Oct-20 12:39 33.273961 -113.081061 91 16632ft 308kts
30-Oct-20 12:40 33.276535 -112.980615 91 14439ft 298kts
30-Oct-20 12:41 33.278948 -112.883487 90 12237ft 287kts
30-Oct-20 12:42 33.281201 -112.790118 89 10047ft 275kts
30-Oct-20 12:43 33.283284 -112.701621 89 8540ft 268kts
30-Oct-20 12:44 33.285335 -112.610699 88 7085ft 276kts
30-Oct-20 12:45 33.287281 -112.523199 88 7045ft 262kts
30-Oct-20 12:46 33.289136 -112.436057 88 7044ft 263kts
30-Oct-20 12:47 33.290953 -112.347801 89 7011ft 269kts
30-Oct-20 12:48 33.292734 -112.258006 89 7009ft 271kts
30-Oct-20 12:49 33.294374 -112.167745 89 7008ft 272kts
30-Oct-20 12:50 33.296051 -112.077109 89 7008ft 272kts
30-Oct-20 12:51 33.297655 -111.986595 89 7015ft 272kts
30-Oct-20 12:52 33.300066 -111.898463 87 5502ft 260kts
30-Oct-20 12:53 33.311876 -111.821980 75 4584ft 212kts
30-Oct-20 12:54 33.333386 -111.758265 67 3385ft 195kts
30-Oct-20 12:55 33.337141 -111.699280 112 2260ft 170kts
30-Oct-20 12:56 33.310729 -111.664786 133 1357ft 104kts
30-Oct-20 12:57 33.301802 -111.655380 226 1370ft 16kts
30-Oct-20 12:58 33.301395 -111.657456 316 1368ft 18kts
30-Oct-20 12:59 33.305593 -111.662338 309 1362ft 22kts
30-Oct-20 13:00 33.307371 -111.667471 358 1355ft 16kts
30-Oct-20 13:01 33.309482 -111.668976 160 1352ft 6kts
30-Oct-20 13:02 33.309403 -111.669071 359 1352ft 0kts
30-Oct-20 13:03 33.309403 -111.669071 359 1352ft 0kts
30-Oct-20 13:04 33.309403 -111.669071 359 1352ft 0kts
30-Oct-20 13:05 33.309403 -111.669071 359 1352ft 0kts
30-Oct-20 13:06 33.309403 -111.669071 359 1352ft 0kts
30-Oct-20 13:07 33.309403 -111.669071 359 1352ft 0kts
30-Oct-20 13:08 33.309403 -111.669071 359 1352ft 0kts
30-Oct-20 13:09 33.309403 -111.669071 359 1352ft 0kts
30-Oct-20 13:10 33.309403 -111.669071 359 1352ft 0kts
30-Oct-20 13:11 33.309403 -111.669071 359 1352ft 0kts
30-Oct-20 13:12 33.309403 -111.669071 359 1352ft 0kts

Navigation Log

Ident Type
Flight plan parsing failed, navigation log unavailable